sensor_id;sensor_type;location;lat;lon;timestamp;temperature;humidity
9816;DHT22;4947;44.526;11.360;2023-04-06T00:01:26;2.90;98.70
9816;DHT22;4947;44.526;11.360;2023-04-06T00:03:55;3.00;98.20
9816;DHT22;4947;44.526;11.360;2023-04-06T00:06:26;3.10;99.90
9816;DHT22;4947;44.526;11.360;2023-04-06T00:08:53;3.00;99.90
9816;DHT22;4947;44.526;11.360;2023-04-06T00:11:21;3.00;99.90
9816;DHT22;4947;44.526;11.360;2023-04-06T00:13:48;3.00;99.90
9816;DHT22;4947;44.526;11.360;2023-04-06T00:16:16;3.00;99.90
9816;DHT22;4947;44.526;11.360;2023-04-06T00:18:43;3.10;99.90
9816;DHT22;4947;44.526;11.360;2023-04-06T00:21:12;3.00;99.90
9816;DHT22;4947;44.526;11.360;2023-04-06T00:23:40;3.10;99.90
9816;DHT22;4947;44.526;11.360;2023-04-06T00:26:07;3.10;99.90
9816;DHT22;4947;44.526;11.360;2023-04-06T00:28:36;3.10;99.90
9816;DHT22;4947;44.526;11.360;2023-04-06T00:31:03;3.10;99.90
9816;DHT22;4947;44.526;11.360;2023-04-06T00:33:31;3.10;99.90
9816;DHT22;4947;44.526;11.360;2023-04-06T00:35:58;3.10;99.90
9816;DHT22;4947;44.526;11.360;2023-04-06T00:38:27;3.10;99.90
9816;DHT22;4947;44.526;11.360;2023-04-06T00:40:54;3.10;99.90
9816;DHT22;4947;44.526;11.360;2023-04-06T00:43:25;3.10;99.90
9816;DHT22;4947;44.526;11.360;2023-04-06T00:45:52;3.10;99.90
9816;DHT22;4947;44.526;11.360;2023-04-06T00:48:20;3.10;99.90
9816;DHT22;4947;44.526;11.360;2023-04-06T00:50:47;3.10;99.90
9816;DHT22;4947;44.526;11.360;2023-04-06T00:53:15;3.00;99.90
9816;DHT22;4947;44.526;11.360;2023-04-06T00:55:44;3.00;99.90
9816;DHT22;4947;44.526;11.360;2023-04-06T00:58:11;3.10;99.90
9816;DHT22;4947;44.526;11.360;2023-04-06T01:00:39;3.00;99.90
9816;DHT22;4947;44.526;11.360;2023-04-06T01:03:06;3.10;99.90
9816;DHT22;4947;44.526;11.360;2023-04-06T01:05:34;3.10;99.90
9816;DHT22;4947;44.526;11.360;2023-04-06T01:08:05;3.10;99.90
9816;DHT22;4947;44.526;11.360;2023-04-06T01:10:32;3.00;99.90
9816;DHT22;4947;44.526;11.360;2023-04-06T01:13:01;3.00;99.90
9816;DHT22;4947;44.526;11.360;2023-04-06T01:15:29;3.00;99.90
9816;DHT22;4947;44.526;11.360;2023-04-06T01:17:56;3.10;99.90
9816;DHT22;4947;44.526;11.360;2023-04-06T01:20:23;3.10;99.90
9816;DHT22;4947;44.526;11.360;2023-04-06T01:22:52;3.10;99.90
9816;DHT22;4947;44.526;11.360;2023-04-06T01:25:20;3.10;99.90
9816;DHT22;4947;44.526;11.360;2023-04-06T01:27:47;3.10;99.90
9816;DHT22;4947;44.526;11.360;2023-04-06T01:30:14;3.00;99.90
9816;DHT22;4947;44.526;11.360;2023-04-06T01:32:42;3.00;99.90
9816;DHT22;4947;44.526;11.360;2023-04-06T01:35:10;3.00;99.90
9816;DHT22;4947;44.526;11.360;2023-04-06T01:37:37;3.00;99.90
9816;DHT22;4947;44.526;11.360;2023-04-06T01:40:07;2.90;99.90
9816;DHT22;4947;44.526;11.360;2023-04-06T01:42:34;2.90;99.90
9816;DHT22;4947;44.526;11.360;2023-04-06T01:45:02;2.90;99.90
9816;DHT22;4947;44.526;11.360;2023-04-06T01:47:29;2.90;99.90
9816;DHT22;4947;44.526;11.360;2023-04-06T01:49:57;3.00;99.90
9816;DHT22;4947;44.526;11.360;2023-04-06T01:52:25;3.00;97.10
9816;DHT22;4947;44.526;11.360;2023-04-06T01:54:52;3.00;97.10
9816;DHT22;4947;44.526;11.360;2023-04-06T01:57:21;3.00;96.00
9816;DHT22;4947;44.526;11.360;2023-04-06T01:59:50;3.00;95.40
9816;DHT22;4947;44.526;11.360;2023-04-06T02:02:17;3.00;91.50
9816;DHT22;4947;44.526;11.360;2023-04-06T02:04:45;3.00;95.10
9816;DHT22;4947;44.526;11.360;2023-04-06T02:07:12;3.00;96.60
9816;DHT22;4947;44.526;11.360;2023-04-06T02:09:39;3.00;93.50
9816;DHT22;4947;44.526;11.360;2023-04-06T02:12:07;2.90;91.00
9816;DHT22;4947;44.526;11.360;2023-04-06T02:14:36;2.80;92.40
9816;DHT22;4947;44.526;11.360;2023-04-06T02:17:04;2.80;96.60
9816;DHT22;4947;44.526;11.360;2023-04-06T02:19:32;2.80;93.30
9816;DHT22;4947;44.526;11.360;2023-04-06T02:21:59;2.70;95.10
9816;DHT22;4947;44.526;11.360;2023-04-06T02:24:26;2.70;93.60
9816;DHT22;4947;44.526;11.360;2023-04-06T02:26:53;2.70;94.60
9816;DHT22;4947;44.526;11.360;2023-04-06T02:29:20;2.60;98.00
9816;DHT22;4947;44.526;11.360;2023-04-06T02:31:49;2.60;99.90
9816;DHT22;4947;44.526;11.360;2023-04-06T02:34:17;2.40;99.90
9816;DHT22;4947;44.526;11.360;2023-04-06T02:36:47;2.40;99.90
9816;DHT22;4947;44.526;11.360;2023-04-06T02:39:14;2.30;99.90
9816;DHT22;4947;44.526;11.360;2023-04-06T02:41:41;2.10;99.90
9816;DHT22;4947;44.526;11.360;2023-04-06T02:44:11;2.10;99.90
9816;DHT22;4947;44.526;11.360;2023-04-06T02:46:38;1.90;99.90
9816;DHT22;4947;44.526;11.360;2023-04-06T02:49:07;1.90;99.90
9816;DHT22;4947;44.526;11.360;2023-04-06T02:51:35;1.90;99.90
9816;DHT22;4947;44.526;11.360;2023-04-06T02:54:02;1.80;99.90
9816;DHT22;4947;44.526;11.360;2023-04-06T02:56:29;1.80;99.90
9816;DHT22;4947;44.526;11.360;2023-04-06T02:58:56;1.80;99.90
9816;DHT22;4947;44.526;11.360;2023-04-06T03:01:24;1.70;99.90
9816;DHT22;4947;44.526;11.360;2023-04-06T03:03:51;1.80;99.90
9816;DHT22;4947;44.526;11.360;2023-04-06T03:06:20;1.80;99.90
9816;DHT22;4947;44.526;11.360;2023-04-06T03:08:48;1.70;99.90
9816;DHT22;4947;44.526;11.360;2023-04-06T03:11:15;1.60;99.90
9816;DHT22;4947;44.526;11.360;2023-04-06T03:13:43;1.60;99.90
9816;DHT22;4947;44.526;11.360;2023-04-06T03:16:10;1.60;99.90
9816;DHT22;4947;44.526;11.360;2023-04-06T03:18:37;1.50;99.90
9816;DHT22;4947;44.526;11.360;2023-04-06T03:21:08;1.60;99.90
9816;DHT22;4947;44.526;11.360;2023-04-06T03:23:39;1.50;99.90
9816;DHT22;4947;44.526;11.360;2023-04-06T03:26:07;1.30;99.90
9816;DHT22;4947;44.526;11.360;2023-04-06T03:28:34;1.40;99.90
9816;DHT22;4947;44.526;11.360;2023-04-06T03:31:02;1.30;99.90
9816;DHT22;4947;44.526;11.360;2023-04-06T03:33:29;1.20;99.90
9816;DHT22;4947;44.526;11.360;2023-04-06T03:35:57;1.20;99.90
9816;DHT22;4947;44.526;11.360;2023-04-06T03:38:24;1.10;99.90
9816;DHT22;4947;44.526;11.360;2023-04-06T03:40:53;1.10;99.90
9816;DHT22;4947;44.526;11.360;2023-04-06T03:43:21;1.00;99.90
9816;DHT22;4947;44.526;11.360;2023-04-06T03:45:49;1.00;99.90
9816;DHT22;4947;44.526;11.360;2023-04-06T03:48:17;1.00;99.90
9816;DHT22;4947;44.526;11.360;2023-04-06T03:50:46;0.90;99.90
9816;DHT22;4947;44.526;11.360;2023-04-06T03:53:14;1.00;99.90
9816;DHT22;4947;44.526;11.360;2023-04-06T03:55:42;0.90;99.90
9816;DHT22;4947;44.526;11.360;2023-04-06T03:58:11;1.00;99.90
9816;DHT22;4947;44.526;11.360;2023-04-06T04:00:38;0.90;99.90
9816;DHT22;4947;44.526;11.360;2023-04-06T04:03:06;0.80;99.90
9816;DHT22;4947;44.526;11.360;2023-04-06T04:05:33;0.70;99.90
9816;DHT22;4947;44.526;11.360;2023-04-06T04:08:01;0.70;99.90
9816;DHT22;4947;44.526;11.360;2023-04-06T04:10:28;0.60;99.90
9816;DHT22;4947;44.526;11.360;2023-04-06T04:12:55;0.60;99.90
9816;DHT22;4947;44.526;11.360;2023-04-06T04:15:24;0.60;99.90
9816;DHT22;4947;44.526;11.360;2023-04-06T04:17:52;0.60;99.90
9816;DHT22;4947;44.526;11.360;2023-04-06T04:20:19;0.70;99.90
9816;DHT22;4947;44.526;11.360;2023-04-06T04:22:46;0.70;99.90
9816;DHT22;4947;44.526;11.360;2023-04-06T04:25:14;0.70;99.90
9816;DHT22;4947;44.526;11.360;2023-04-06T04:27:41;0.80;99.90
9816;DHT22;4947;44.526;11.360;2023-04-06T04:30:09;0.80;99.90
9816;DHT22;4947;44.526;11.360;2023-04-06T04:32:38;0.80;99.90
9816;DHT22;4947;44.526;11.360;2023-04-06T04:35:06;0.80;99.90
9816;DHT22;4947;44.526;11.360;2023-04-06T04:37:34;0.80;99.90
9816;DHT22;4947;44.526;11.360;2023-04-06T04:40:02;0.80;99.90
9816;DHT22;4947;44.526;11.360;2023-04-06T04:42:29;0.80;99.90
9816;DHT22;4947;44.526;11.360;2023-04-06T04:44:56;0.80;99.90
9816;DHT22;4947;44.526;11.360;2023-04-06T04:47:24;0.80;99.90
9816;DHT22;4947;44.526;11.360;2023-04-06T04:49:53;0.80;99.90
9816;DHT22;4947;44.526;11.360;2023-04-06T04:52:20;0.80;99.90
9816;DHT22;4947;44.526;11.360;2023-04-06T04:54:48;0.70;99.90
9816;DHT22;4947;44.526;11.360;2023-04-06T04:57:15;0.60;99.90
9816;DHT22;4947;44.526;11.360;2023-04-06T04:59:42;0.60;99.90
9816;DHT22;4947;44.526;11.360;2023-04-06T05:02:09;0.70;99.90
9816;DHT22;4947;44.526;11.360;2023-04-06T05:04:37;0.70;99.90
9816;DHT22;4947;44.526;11.360;2023-04-06T05:07:06;0.80;99.90
9816;DHT22;4947;44.526;11.360;2023-04-06T05:09:34;0.80;99.90
9816;DHT22;4947;44.526;11.360;2023-04-06T05:12:01;0.80;99.90
9816;DHT22;4947;44.526;11.360;2023-04-06T05:14:29;0.90;99.90
9816;DHT22;4947;44.526;11.360;2023-04-06T05:16:56;0.90;99.90
9816;DHT22;4947;44.526;11.360;2023-04-06T05:19:24;0.90;99.90
9816;DHT22;4947;44.526;11.360;2023-04-06T05:21:51;0.90;99.90
9816;DHT22;4947;44.526;11.360;2023-04-06T05:24:25;1.10;99.90
9816;DHT22;4947;44.526;11.360;2023-04-06T05:26:52;1.20;99.90
9816;DHT22;4947;44.526;11.360;2023-04-06T05:29:20;1.10;99.90
9816;DHT22;4947;44.526;11.360;2023-04-06T05:31:48;1.20;99.90
9816;DHT22;4947;44.526;11.360;2023-04-06T05:34:15;1.30;99.90
9816;DHT22;4947;44.526;11.360;2023-04-06T05:36:42;1.40;99.90
9816;DHT22;4947;44.526;11.360;2023-04-06T05:39:09;1.50;99.90
9816;DHT22;4947;44.526;11.360;2023-04-06T05:41:39;1.50;99.90
9816;DHT22;4947;44.526;11.360;2023-04-06T05:44:06;1.60;99.90
9816;DHT22;4947;44.526;11.360;2023-04-06T05:46:33;1.70;99.90
9816;DHT22;4947;44.526;11.360;2023-04-06T05:49:01;1.80;99.90
9816;DHT22;4947;44.526;11.360;2023-04-06T05:51:29;1.90;99.90
9816;DHT22;4947;44.526;11.360;2023-04-06T05:53:56;2.00;99.90
9816;DHT22;4947;44.526;11.360;2023-04-06T05:56:23;2.10;99.90
9816;DHT22;4947;44.526;11.360;2023-04-06T05:58:52;2.20;99.90
9816;DHT22;4947;44.526;11.360;2023-04-06T06:01:24;2.30;99.90
9816;DHT22;4947;44.526;11.360;2023-04-06T06:03:51;2.40;99.90
9816;DHT22;4947;44.526;11.360;2023-04-06T06:06:19;2.60;99.90
9816;DHT22;4947;44.526;11.360;2023-04-06T06:08:45;2.70;99.90
9816;DHT22;4947;44.526;11.360;2023-04-06T06:11:13;2.90;99.90
9816;DHT22;4947;44.526;11.360;2023-04-06T06:13:40;3.10;98.50
9816;DHT22;4947;44.526;11.360;2023-04-06T06:16:09;3.20;99.30
9816;DHT22;4947;44.526;11.360;2023-04-06T06:18:36;3.40;98.90
9816;DHT22;4947;44.526;11.360;2023-04-06T06:21:04;3.50;98.90
9816;DHT22;4947;44.526;11.360;2023-04-06T06:23:31;3.70;98.60
9816;DHT22;4947;44.526;11.360;2023-04-06T06:25:59;3.90;97.30
9816;DHT22;4947;44.526;11.360;2023-04-06T06:28:26;4.00;93.80
9816;DHT22;4947;44.526;11.360;2023-04-06T06:30:54;4.10;91.20
9816;DHT22;4947;44.526;11.360;2023-04-06T06:33:23;4.20;92.60
9816;DHT22;4947;44.526;11.360;2023-04-06T06:35:51;4.50;91.40
9816;DHT22;4947;44.526;11.360;2023-04-06T06:38:19;4.60;91.60
9816;DHT22;4947;44.526;11.360;2023-04-06T06:40:46;4.80;89.70
9816;DHT22;4947;44.526;11.360;2023-04-06T06:43:13;4.90;86.20
9816;DHT22;4947;44.526;11.360;2023-04-06T06:45:41;5.10;80.70
9816;DHT22;4947;44.526;11.360;2023-04-06T06:48:08;5.20;81.30
9816;DHT22;4947;44.526;11.360;2023-04-06T06:50:37;5.50;78.80
9816;DHT22;4947;44.526;11.360;2023-04-06T06:53:05;5.70;78.40
9816;DHT22;4947;44.526;11.360;2023-04-06T06:55:31;5.90;75.20
9816;DHT22;4947;44.526;11.360;2023-04-06T06:58:00;6.20;71.10
9816;DHT22;4947;44.526;11.360;2023-04-06T07:00:27;6.70;69.60
9816;DHT22;4947;44.526;11.360;2023-04-06T07:02:54;7.00;64.50
9816;DHT22;4947;44.526;11.360;2023-04-06T07:05:22;7.30;64.10
9816;DHT22;4947;44.526;11.360;2023-04-06T07:07:50;7.40;61.10
9816;DHT22;4947;44.526;11.360;2023-04-06T07:10:18;7.50;60.70
9816;DHT22;4947;44.526;11.360;2023-04-06T07:12:45;7.70;62.70
9816;DHT22;4947;44.526;11.360;2023-04-06T07:15:13;8.10;61.30
9816;DHT22;4947;44.526;11.360;2023-04-06T07:17:40;8.60;59.10
9816;DHT22;4947;44.526;11.360;2023-04-06T07:20:10;8.90;57.70
9816;DHT22;4947;44.526;11.360;2023-04-06T07:22:38;9.70;57.20
9816;DHT22;4947;44.526;11.360;2023-04-06T07:25:07;10.40;52.30
9816;DHT22;4947;44.526;11.360;2023-04-06T07:27:35;10.90;53.30
9816;DHT22;4947;44.526;11.360;2023-04-06T07:30:02;11.70;49.50
9816;DHT22;4947;44.526;11.360;2023-04-06T07:32:30;12.20;48.00
9816;DHT22;4947;44.526;11.360;2023-04-06T07:34:58;12.50;47.40
9816;DHT22;4947;44.526;11.360;2023-04-06T07:37:25;13.50;46.00
9816;DHT22;4947;44.526;11.360;2023-04-06T07:39:52;14.00;44.10
9816;DHT22;4947;44.526;11.360;2023-04-06T07:42:21;15.00;41.00
9816;DHT22;4947;44.526;11.360;2023-04-06T07:44:48;14.90;38.30
9816;DHT22;4947;44.526;11.360;2023-04-06T07:47:15;15.30;37.00
9816;DHT22;4947;44.526;11.360;2023-04-06T07:49:43;15.50;35.10
9816;DHT22;4947;44.526;11.360;2023-04-06T07:52:10;16.20;34.90
9816;DHT22;4947;44.526;11.360;2023-04-06T07:54:38;16.40;34.20
9816;DHT22;4947;44.526;11.360;2023-04-06T07:57:05;16.30;32.60
9816;DHT22;4947;44.526;11.360;2023-04-06T07:59:33;17.20;32.40
9816;DHT22;4947;44.526;11.360;2023-04-06T08:02:02;17.20;32.30
9816;DHT22;4947;44.526;11.360;2023-04-06T08:04:30;17.20;31.80
9816;DHT22;4947;44.526;11.360;2023-04-06T08:06:57;17.10;31.00
9816;DHT22;4947;44.526;11.360;2023-04-06T08:09:25;18.10;29.20
9816;DHT22;4947;44.526;11.360;2023-04-06T08:11:57;18.90;27.50
9816;DHT22;4947;44.526;11.360;2023-04-06T08:14:25;18.60;28.60
9816;DHT22;4947;44.526;11.360;2023-04-06T08:16:54;19.20;28.20
9816;DHT22;4947;44.526;11.360;2023-04-06T08:19:21;18.90;26.30
9816;DHT22;4947;44.526;11.360;2023-04-06T08:21:49;18.40;25.50
9816;DHT22;4947;44.526;11.360;2023-04-06T08:24:16;17.20;26.00
9816;DHT22;4947;44.526;11.360;2023-04-06T08:26:44;16.80;27.10
9816;DHT22;4947;44.526;11.360;2023-04-06T08:29:12;16.20;28.00
9816;DHT22;4947;44.526;11.360;2023-04-06T08:31:40;17.60;26.70
9816;DHT22;4947;44.526;11.360;2023-04-06T08:34:09;16.60;26.80
9816;DHT22;4947;44.526;11.360;2023-04-06T08:36:37;18.20;26.80
9816;DHT22;4947;44.526;11.360;2023-04-06T08:39:05;17.40;26.00
9816;DHT22;4947;44.526;11.360;2023-04-06T08:41:32;18.10;29.00
9816;DHT22;4947;44.526;11.360;2023-04-06T08:44:01;19.20;27.40
9816;DHT22;4947;44.526;11.360;2023-04-06T08:46:29;19.90;26.30
9816;DHT22;4947;44.526;11.360;2023-04-06T08:48:58;20.20;24.60
9816;DHT22;4947;44.526;11.360;2023-04-06T08:51:28;20.30;23.80
9816;DHT22;4947;44.526;11.360;2023-04-06T08:53:56;20.40;25.90
9816;DHT22;4947;44.526;11.360;2023-04-06T08:56:25;20.10;23.60
9816;DHT22;4947;44.526;11.360;2023-04-06T08:58:53;17.40;24.30
9816;DHT22;4947;44.526;11.360;2023-04-06T09:01:23;18.30;24.50
9816;DHT22;4947;44.526;11.360;2023-04-06T09:03:51;18.20;24.10
9816;DHT22;4947;44.526;11.360;2023-04-06T09:06:22;19.10;24.20
9816;DHT22;4947;44.526;11.360;2023-04-06T09:08:52;17.40;25.30
9816;DHT22;4947;44.526;11.360;2023-04-06T09:11:19;17.30;27.20
9816;DHT22;4947;44.526;11.360;2023-04-06T09:13:48;19.20;26.60
9816;DHT22;4947;44.526;11.360;2023-04-06T09:16:16;19.70;26.10
9816;DHT22;4947;44.526;11.360;2023-04-06T09:18:45;20.50;25.40
9816;DHT22;4947;44.526;11.360;2023-04-06T09:21:17;20.30;23.70
9816;DHT22;4947;44.526;11.360;2023-04-06T09:23:44;20.20;24.30
9816;DHT22;4947;44.526;11.360;2023-04-06T09:26:16;19.90;23.30
9816;DHT22;4947;44.526;11.360;2023-04-06T09:28:47;20.60;22.40
9816;DHT22;4947;44.526;11.360;2023-04-06T09:31:16;20.90;21.20
9816;DHT22;4947;44.526;11.360;2023-04-06T09:33:45;21.10;22.60
9816;DHT22;4947;44.526;11.360;2023-04-06T09:36:13;19.80;22.70
9816;DHT22;4947;44.526;11.360;2023-04-06T09:38:53;20.60;23.10
9816;DHT22;4947;44.526;11.360;2023-04-06T09:41:23;19.80;24.00
9816;DHT22;4947;44.526;11.360;2023-04-06T09:43:52;20.20;24.90
9816;DHT22;4947;44.526;11.360;2023-04-06T09:46:21;19.30;23.00
9816;DHT22;4947;44.526;11.360;2023-04-06T09:48:51;19.30;23.30
9816;DHT22;4947;44.526;11.360;2023-04-06T09:51:20;18.80;22.90
9816;DHT22;4947;44.526;11.360;2023-04-06T09:53:52;18.70;23.70
9816;DHT22;4947;44.526;11.360;2023-04-06T09:56:25;18.00;24.60
9816;DHT22;4947;44.526;11.360;2023-04-06T09:59:01;17.60;26.50
9816;DHT22;4947;44.526;11.360;2023-04-06T10:01:32;17.50;24.90
9816;DHT22;4947;44.526;11.360;2023-04-06T10:04:09;17.80;24.90
9816;DHT22;4947;44.526;11.360;2023-04-06T10:06:39;17.50;25.00
9816;DHT22;4947;44.526;11.360;2023-04-06T10:09:07;16.80;24.60
9816;DHT22;4947;44.526;11.360;2023-04-06T10:11:37;15.80;26.70
9816;DHT22;4947;44.526;11.360;2023-04-06T10:14:05;15.00;26.50
9816;DHT22;4947;44.526;11.360;2023-04-06T10:16:34;14.80;27.50
9816;DHT22;4947;44.526;11.360;2023-04-06T10:19:06;14.80;27.80
9816;DHT22;4947;44.526;11.360;2023-04-06T10:21:36;14.90;27.90
9816;DHT22;4947;44.526;11.360;2023-04-06T10:24:08;15.20;29.80
9816;DHT22;4947;44.526;11.360;2023-04-06T10:26:39;15.30;29.60
9816;DHT22;4947;44.526;11.360;2023-04-06T10:29:06;14.80;27.10
9816;DHT22;4947;44.526;11.360;2023-04-06T10:31:40;14.80;28.30
9816;DHT22;4947;44.526;11.360;2023-04-06T10:34:14;14.60;28.00
9816;DHT22;4947;44.526;11.360;2023-04-06T10:36:42;14.30;28.20
9816;DHT22;4947;44.526;11.360;2023-04-06T10:39:10;14.40;30.70
9816;DHT22;4947;44.526;11.360;2023-04-06T10:41:43;14.40;29.80
9816;DHT22;4947;44.526;11.360;2023-04-06T10:44:17;14.70;30.90
9816;DHT22;4947;44.526;11.360;2023-04-06T10:46:52;14.60;30.60
9816;DHT22;4947;44.526;11.360;2023-04-06T10:49:25;14.70;30.20
9816;DHT22;4947;44.526;11.360;2023-04-06T10:51:54;14.70;29.10
9816;DHT22;4947;44.526;11.360;2023-04-06T10:54:22;14.50;29.90
9816;DHT22;4947;44.526;11.360;2023-04-06T10:56:52;14.60;31.30
9816;DHT22;4947;44.526;11.360;2023-04-06T10:59:20;14.70;31.50
9816;DHT22;4947;44.526;11.360;2023-04-06T11:01:48;14.70;29.60
9816;DHT22;4947;44.526;11.360;2023-04-06T11:04:16;14.00;29.20
9816;DHT22;4947;44.526;11.360;2023-04-06T11:06:47;14.10;29.10
9816;DHT22;4947;44.526;11.360;2023-04-06T11:09:24;14.10;28.80
9816;DHT22;4947;44.526;11.360;2023-04-06T11:11:54;14.30;32.20
9816;DHT22;4947;44.526;11.360;2023-04-06T11:14:22;14.40;32.30
9816;DHT22;4947;44.526;11.360;2023-04-06T11:16:52;14.30;30.00
9816;DHT22;4947;44.526;11.360;2023-04-06T11:19:19;14.30;30.00
9816;DHT22;4947;44.526;11.360;2023-04-06T11:21:48;14.30;29.90
9816;DHT22;4947;44.526;11.360;2023-04-06T11:24:17;14.10;29.00
9816;DHT22;4947;44.526;11.360;2023-04-06T11:26:48;13.90;29.60
9816;DHT22;4947;44.526;11.360;2023-04-06T11:29:20;13.90;30.30
9816;DHT22;4947;44.526;11.360;2023-04-06T11:31:51;13.80;30.60
9816;DHT22;4947;44.526;11.360;2023-04-06T11:34:20;14.10;30.70
9816;DHT22;4947;44.526;11.360;2023-04-06T11:36:49;14.20;32.60
9816;DHT22;4947;44.526;11.360;2023-04-06T11:39:25;14.20;29.80
9816;DHT22;4947;44.526;11.360;2023-04-06T11:41:54;14.30;30.60
9816;DHT22;4947;44.526;11.360;2023-04-06T11:44:40;14.30;30.30
9816;DHT22;4947;44.526;11.360;2023-04-06T11:47:12;14.30;30.30
9816;DHT22;4947;44.526;11.360;2023-04-06T11:49:41;14.20;30.20
9816;DHT22;4947;44.526;11.360;2023-04-06T11:52:16;14.30;31.90
9816;DHT22;4947;44.526;11.360;2023-04-06T11:54:45;14.30;30.00
9816;DHT22;4947;44.526;11.360;2023-04-06T11:57:13;14.10;30.30
9816;DHT22;4947;44.526;11.360;2023-04-06T11:59:42;14.00;30.70
9816;DHT22;4947;44.526;11.360;2023-04-06T12:02:14;13.90;30.10
9816;DHT22;4947;44.526;11.360;2023-04-06T12:04:45;13.90;30.30
9816;DHT22;4947;44.526;11.360;2023-04-06T12:07:13;13.90;30.10
9816;DHT22;4947;44.526;11.360;2023-04-06T12:09:41;14.00;30.20
9816;DHT22;4947;44.526;11.360;2023-04-06T12:12:09;14.20;31.30
9816;DHT22;4947;44.526;11.360;2023-04-06T12:14:36;14.30;31.10
9816;DHT22;4947;44.526;11.360;2023-04-06T12:17:06;14.50;31.90
9816;DHT22;4947;44.526;11.360;2023-04-06T12:19:34;14.50;31.10
9816;DHT22;4947;44.526;11.360;2023-04-06T12:22:02;14.60;30.50
9816;DHT22;4947;44.526;11.360;2023-04-06T12:24:29;14.60;30.00
9816;DHT22;4947;44.526;11.360;2023-04-06T12:26:57;14.50;30.40
9816;DHT22;4947;44.526;11.360;2023-04-06T12:29:24;14.40;31.20
9816;DHT22;4947;44.526;11.360;2023-04-06T12:31:54;14.30;31.30
9816;DHT22;4947;44.526;11.360;2023-04-06T12:34:24;14.40;31.70
9816;DHT22;4947;44.526;11.360;2023-04-06T12:36:53;14.40;31.30
9816;DHT22;4947;44.526;11.360;2023-04-06T12:39:20;14.50;30.90
9816;DHT22;4947;44.526;11.360;2023-04-06T12:41:48;14.30;30.00
9816;DHT22;4947;44.526;11.360;2023-04-06T12:44:15;14.30;29.90
9816;DHT22;4947;44.526;11.360;2023-04-06T12:46:43;14.10;30.00
9816;DHT22;4947;44.526;11.360;2023-04-06T12:49:10;14.10;30.30
9816;DHT22;4947;44.526;11.360;2023-04-06T12:51:40;14.20;30.70
9816;DHT22;4947;44.526;11.360;2023-04-06T12:54:07;14.30;31.60
9816;DHT22;4947;44.526;11.360;2023-04-06T12:56:35;14.30;30.30
9816;DHT22;4947;44.526;11.360;2023-04-06T12:59:02;14.10;30.50
9816;DHT22;4947;44.526;11.360;2023-04-06T13:01:30;14.10;30.00
9816;DHT22;4947;44.526;11.360;2023-04-06T13:03:58;14.20;30.40
9816;DHT22;4947;44.526;11.360;2023-04-06T13:06:29;14.20;30.10
9816;DHT22;4947;44.526;11.360;2023-04-06T13:08:58;14.20;30.10
9816;DHT22;4947;44.526;11.360;2023-04-06T13:11:26;14.20;30.40
9816;DHT22;4947;44.526;11.360;2023-04-06T13:13:53;14.10;30.10
9816;DHT22;4947;44.526;11.360;2023-04-06T13:16:21;14.20;31.10
9816;DHT22;4947;44.526;11.360;2023-04-06T13:18:50;14.30;30.40
9816;DHT22;4947;44.526;11.360;2023-04-06T13:21:18;14.30;30.50
9816;DHT22;4947;44.526;11.360;2023-04-06T13:23:46;14.40;30.20
9816;DHT22;4947;44.526;11.360;2023-04-06T13:26:16;14.50;30.00
9816;DHT22;4947;44.526;11.360;2023-04-06T13:28:44;14.60;30.50
9816;DHT22;4947;44.526;11.360;2023-04-06T13:31:12;14.60;30.80
9816;DHT22;4947;44.526;11.360;2023-04-06T13:33:39;14.70;30.40
9816;DHT22;4947;44.526;11.360;2023-04-06T13:36:08;14.60;30.10
9816;DHT22;4947;44.526;11.360;2023-04-06T13:38:35;14.70;31.60
9816;DHT22;4947;44.526;11.360;2023-04-06T13:41:04;14.70;30.60
9816;DHT22;4947;44.526;11.360;2023-04-06T13:43:33;14.60;30.80
9816;DHT22;4947;44.526;11.360;2023-04-06T13:46:00;14.50;29.90
9816;DHT22;4947;44.526;11.360;2023-04-06T13:48:28;14.40;31.30
9816;DHT22;4947;44.526;11.360;2023-04-06T13:50:57;14.50;30.00
9816;DHT22;4947;44.526;11.360;2023-04-06T13:53:24;14.50;30.50
9816;DHT22;4947;44.526;11.360;2023-04-06T13:55:53;14.50;30.40
9816;DHT22;4947;44.526;11.360;2023-04-06T13:58:20;14.40;30.00
9816;DHT22;4947;44.526;11.360;2023-04-06T14:00:49;14.40;30.20
9816;DHT22;4947;44.526;11.360;2023-04-06T14:03:18;14.40;30.00
9816;DHT22;4947;44.526;11.360;2023-04-06T14:05:45;14.50;31.40
9816;DHT22;4947;44.526;11.360;2023-04-06T14:08:16;14.60;30.90
9816;DHT22;4947;44.526;11.360;2023-04-06T14:10:43;14.60;30.10
9816;DHT22;4947;44.526;11.360;2023-04-06T14:13:11;14.50;30.00
9816;DHT22;4947;44.526;11.360;2023-04-06T14:15:38;14.40;29.50
9816;DHT22;4947;44.526;11.360;2023-04-06T14:18:08;14.40;30.30
9816;DHT22;4947;44.526;11.360;2023-04-06T14:20:35;14.50;30.10
9816;DHT22;4947;44.526;11.360;2023-04-06T14:23:03;14.40;30.30
9816;DHT22;4947;44.526;11.360;2023-04-06T14:25:31;14.50;30.90
9816;DHT22;4947;44.526;11.360;2023-04-06T14:28:00;14.60;30.00
9816;DHT22;4947;44.526;11.360;2023-04-06T14:30:29;14.60;29.50
9816;DHT22;4947;44.526;11.360;2023-04-06T14:32:57;14.50;30.70
9816;DHT22;4947;44.526;11.360;2023-04-06T14:35:26;14.30;30.40
9816;DHT22;4947;44.526;11.360;2023-04-06T14:37:53;14.30;31.40
9816;DHT22;4947;44.526;11.360;2023-04-06T14:40:26;14.30;32.60
9816;DHT22;4947;44.526;11.360;2023-04-06T14:42:53;14.30;31.60
9816;DHT22;4947;44.526;11.360;2023-04-06T14:45:21;14.30;31.50
9816;DHT22;4947;44.526;11.360;2023-04-06T14:47:56;14.40;31.20
9816;DHT22;4947;44.526;11.360;2023-04-06T14:50:23;14.50;31.70
9816;DHT22;4947;44.526;11.360;2023-04-06T14:52:52;14.50;30.70
9816;DHT22;4947;44.526;11.360;2023-04-06T14:55:19;14.50;30.00
9816;DHT22;4947;44.526;11.360;2023-04-06T14:57:46;14.60;31.20
9816;DHT22;4947;44.526;11.360;2023-04-06T15:00:15;14.60;31.30
9816;DHT22;4947;44.526;11.360;2023-04-06T15:02:43;14.60;31.60
9816;DHT22;4947;44.526;11.360;2023-04-06T15:05:10;14.50;31.10
9816;DHT22;4947;44.526;11.360;2023-04-06T15:07:39;14.50;31.10
9816;DHT22;4947;44.526;11.360;2023-04-06T15:10:10;14.50;31.00
9816;DHT22;4947;44.526;11.360;2023-04-06T15:12:39;14.50;31.60
9816;DHT22;4947;44.526;11.360;2023-04-06T15:15:15;14.50;31.40
9816;DHT22;4947;44.526;11.360;2023-04-06T15:17:42;14.60;30.20
9816;DHT22;4947;44.526;11.360;2023-04-06T15:20:10;14.60;31.50
9816;DHT22;4947;44.526;11.360;2023-04-06T15:22:45;14.60;31.90
9816;DHT22;4947;44.526;11.360;2023-04-06T15:25:14;14.60;31.40
9816;DHT22;4947;44.526;11.360;2023-04-06T15:27:42;14.60;30.20
9816;DHT22;4947;44.526;11.360;2023-04-06T15:30:10;14.60;30.00
9816;DHT22;4947;44.526;11.360;2023-04-06T15:32:38;14.70;29.90
9816;DHT22;4947;44.526;11.360;2023-04-06T15:35:09;14.70;30.10
9816;DHT22;4947;44.526;11.360;2023-04-06T15:37:40;14.70;30.20
9816;DHT22;4947;44.526;11.360;2023-04-06T15:40:09;14.80;31.20
9816;DHT22;4947;44.526;11.360;2023-04-06T15:42:40;14.90;30.70
9816;DHT22;4947;44.526;11.360;2023-04-06T15:45:08;14.90;31.10
9816;DHT22;4947;44.526;11.360;2023-04-06T15:47:36;15.00;31.80
9816;DHT22;4947;44.526;11.360;2023-04-06T15:50:05;14.90;31.80
9816;DHT22;4947;44.526;11.360;2023-04-06T15:52:33;14.90;30.50
9816;DHT22;4947;44.526;11.360;2023-04-06T15:55:02;14.80;30.30
9816;DHT22;4947;44.526;11.360;2023-04-06T15:57:30;14.90;31.10
9816;DHT22;4947;44.526;11.360;2023-04-06T16:00:00;15.00;31.40